Time;durP1;ratioP1;P1;durP2;ratioP2;P2;SDS_P1;SDS_P2;PMS_P1;PMS_P2;Temp;Humidity;BMP_temperature;BMP_pressure;BME280_temperature;BME280_humidity;BME280_pressure;Samples;Min_cycle;Max_cycle;Signal;HPM_P1;HPM_P2
2023/03/11 00:04:49;;;;;;;0.00;0.00;;;;;;;0.54;100.00;99995.19;10524722;28;21739;-81
2023/03/11 00:09:50;;;;;;;0.00;0.00;;;;;;;0.48;100.00;99999.94;10529551;28;20051;-81
2023/03/11 00:14:52;;;;;;;0.00;0.00;;;;;;;0.54;100.00;100010.41;10540955;28;20225;-81
2023/03/11 00:19:54;;;;;;;0.00;0.00;;;;;;;0.53;100.00;100015.38;10538211;28;20396;-80
2023/03/11 00:24:55;;;;;;;0.00;0.00;;;;;;;0.56;100.00;100021.47;10525964;28;20089;-80
2023/03/11 00:29:57;;;;;;;0.00;0.00;;;;;;;0.54;100.00;100023.06;10512005;28;20043;-80
2023/03/11 00:34:58;;;;;;;0.10;0.10;;;;;;;0.64;100.00;100032.03;10509758;28;20407;-80
2023/03/11 00:40:00;;;;;;;0.10;0.10;;;;;;;0.56;100.00;100041.75;10530818;28;20044;-80
2023/03/11 00:45:02;;;;;;;0.00;0.00;;;;;;;0.53;100.00;100044.13;10516739;28;20040;-80
2023/03/11 00:50:05;;;;;;;0.10;0.10;;;;;;;0.55;100.00;100039.13;10505008;28;20438;-80
2023/03/11 00:55:12;;;;;;;0.00;0.00;;;;;;;0.52;100.00;100052.53;10512065;28;20040;-80
2023/03/11 01:00:17;;;;;;;0.00;0.00;;;;;;;0.51;100.00;100065.97;10503131;28;20055;-80
2023/03/11 01:05:21;;;;;;;0.03;0.03;;;;;;;0.41;100.00;100078.97;10510991;28;20063;-80
2023/03/11 01:10:24;;;;;;;27.00;1.00;;;;;;;0.39;100.00;100081.41;10521025;28;20058;-80
2023/03/11 01:15:29;;;;;;;0.00;0.00;;;;;;;0.39;100.00;100081.41;10527486;28;20522;-80
2023/03/11 01:20:32;;;;;;;0.00;0.00;;;;;;;0.37;100.00;100089.72;10550376;28;20087;-79
2023/03/11 01:25:35;;;;;;;0.00;0.00;;;;;;;0.40;100.00;100087.38;10492901;28;20565;-80
2023/03/11 01:30:38;;;;;;;0.00;0.00;;;;;;;0.48;100.00;100086.13;10511039;28;20047;-79
2023/03/11 01:35:41;;;;;;;0.00;0.00;;;;;;;0.43;100.00;100084.97;10511931;28;20036;-80
2023/03/11 01:40:46;;;;;;;0.00;0.00;;;;;;;0.47;100.00;100099.56;10514847;28;20036;-81
2023/03/11 01:45:49;;;;;;;0.80;0.65;;;;;;;0.45;100.00;100121.41;10531707;28;20131;-81
2023/03/11 01:50:55;;;;;;;0.00;0.00;;;;;;;0.45;100.00;100129.03;10501433;28;20054;-80
2023/03/11 01:55:57;;;;;;;0.00;0.00;;;;;;;0.34;100.00;100142.75;10527676;28;20039;-80
2023/03/11 02:01:01;;;;;;;0.00;0.00;;;;;;;0.34;100.00;100152.88;10517338;28;20040;-81
2023/03/11 02:06:07;;;;;;;0.00;0.00;;;;;;;0.39;100.00;100141.38;10557379;27;20402;-80
2023/03/11 02:11:15;;;;;;;0.80;0.55;;;;;;;0.41;100.00;100149.94;10538601;28;20079;-81
2023/03/11 02:16:17;;;;;;;0.20;0.20;;;;;;;0.36;100.00;100169.06;10538770;28;20555;-80
2023/03/11 02:21:26;;;;;;;0.00;0.00;;;;;;;0.44;100.00;100180.50;10542654;28;20054;-80
2023/03/11 02:26:39;;;;;;;0.00;0.00;;;;;;;0.30;100.00;100188.22;10534475;28;20560;-80
2023/03/11 02:31:42;;;;;;;0.57;0.57;;;;;;;0.21;100.00;100187.69;10515222;28;20044;-82
2023/03/11 02:36:46;;;;;;;0.20;0.20;;;;;;;0.29;100.00;100178.88;10537119;28;20032;-81
2023/03/11 02:41:49;;;;;;;0.00;0.00;;;;;;;0.29;100.00;100180.53;10522887;28;20850;-81
2023/03/11 02:46:51;;;;;;;0.00;0.00;;;;;;;0.36;100.00;100191.88;10513313;28;20131;-81
2023/03/11 02:51:55;;;;;;;0.00;0.00;;;;;;;0.34;100.00;100203.56;10532664;28;20039;-81
2023/03/11 02:56:57;;;;;;;0.25;0.25;;;;;;;0.37;100.00;100214.78;10536991;28;20040;-81
2023/03/11 03:02:00;;;;;;;0.00;0.00;;;;;;;0.29;100.00;100233.75;10520564;28;20067;-81
2023/03/11 03:07:03;;;;;;;0.17;0.17;;;;;;;0.24;100.00;100240.19;10539658;28;20406;-81
2023/03/11 03:12:05;;;;;;;0.00;0.00;;;;;;;0.29;100.00;100252.34;10523252;28;20040;-81
2023/03/11 03:17:08;;;;;;;0.00;0.00;;;;;;;0.30;100.00;100259.16;10508730;28;20040;-81
2023/03/11 03:22:10;;;;;;;0.00;0.00;;;;;;;0.76;100.00;100259.97;10535958;28;20040;-81
2023/03/11 03:27:11;;;;;;;0.00;0.00;;;;;;;0.21;100.00;100283.97;10532557;28;20121;-81
2023/03/11 03:32:15;;;;;;;0.38;0.38;;;;;;;0.81;100.00;100283.06;10529056;28;20067;-81
2023/03/11 03:37:17;;;;;;;0.00;0.00;;;;;;;0.55;100.00;100321.38;10520084;28;20048;-80
2023/03/11 03:42:19;;;;;;;0.00;0.00;;;;;;;0.56;100.00;100345.06;10545676;28;20052;-81
2023/03/11 03:47:21;;;;;;;0.17;0.17;;;;;;;0.45;100.00;100363.06;10523034;28;20036;-81
2023/03/11 03:52:24;;;;;;;0.00;0.00;;;;;;;0.42;100.00;100389.88;10511762;28;20079;-81
2023/03/11 03:57:27;;;;;;;0.00;0.00;;;;;;;0.44;100.00;100406.94;10508299;28;20555;-80
2023/03/11 04:02:30;;;;;;;0.00;0.00;;;;;;;0.38;100.00;100413.31;10517032;28;20052;-81
2023/03/11 04:07:34;;;;;;;0.00;0.00;;;;;;;0.42;100.00;100416.13;10541112;28;20049;-80
2023/03/11 04:12:38;;;;;;;0.03;0.03;;;;;;;0.22;100.00;100427.59;10521374;28;20044;-82
2023/03/11 04:17:41;;;;;;;0.00;0.00;;;;;;;0.20;100.00;100449.44;10521048;28;20039;-81
2023/03/11 04:22:43;;;;;;;0.00;0.00;;;;;;;0.04;100.00;100461.97;10551891;28;20046;-81
2023/03/11 04:27:48;;;;;;;0.00;0.00;;;;;;;-0.18;100.00;100470.75;10537757;28;20155;-81
2023/03/11 04:32:50;;;;;;;0.10;0.10;;;;;;;0.12;100.00;100460.75;10551952;28;20139;-81
2023/03/11 04:37:52;;;;;;;0.10;0.10;;;;;;;0.13;100.00;100472.63;10529332;28;20036;-81
2023/03/11 04:42:55;;;;;;;0.00;0.00;;;;;;;0.26;100.00;100464.13;10535125;28;20059;-81
2023/03/11 04:47:57;;;;;;;0.00;0.00;;;;;;;0.27;100.00;100474.34;10528731;28;20043;-81
2023/03/11 04:53:00;;;;;;;7.20;2.28;;;;;;;0.27;100.00;100476.03;10539290;28;20518;-81
2023/03/11 04:58:02;;;;;;;0.00;0.00;;;;;;;0.18;100.00;100496.63;10535976;28;20040;-81
2023/03/11 05:03:06;;;;;;;0.00;0.00;;;;;;;0.04;100.00;100512.63;10531704;28;20048;-80
2023/03/11 05:08:07;;;;;;;0.00;0.00;;;;;;;-0.76;100.00;100524.47;10519848;28;20047;-81
2023/03/11 05:13:09;;;;;;;0.00;0.00;;;;;;;-0.46;100.00;100519.63;10523637;28;20127;-80
2023/03/11 05:18:14;;;;;;;0.00;0.00;;;;;;;-0.47;100.00;100539.81;10518152;28;20055;-80
2023/03/11 05:23:16;;;;;;;0.00;0.00;;;;;;;-0.51;100.00;100558.97;10546235;28;20074;-80
2023/03/11 05:28:20;;;;;;;0.00;0.00;;;;;;;-0.42;100.00;100557.03;10523173;28;20100;-80
2023/03/11 05:33:25;;;;;;;0.00;0.00;;;;;;;-0.45;100.00;100568.63;10553388;28;20060;-79
2023/03/11 05:38:27;;;;;;;0.00;0.00;;;;;;;-0.41;100.00;100565.50;10529953;28;20043;-82
2023/03/11 05:43:29;;;;;;;0.08;0.08;;;;;;;-0.26;100.00;100574.09;10495740;28;20544;-81
2023/03/11 05:48:31;;;;;;;0.00;0.00;;;;;;;-0.29;100.00;100578.06;10511331;28;20036;-81
2023/03/11 05:53:33;;;;;;;0.00;0.00;;;;;;;-0.19;100.00;100595.63;10536985;28;20040;-80
2023/03/11 05:58:35;;;;;;;0.00;0.00;;;;;;;-0.47;100.00;100609.00;10505702;28;20534;-81
2023/03/11 06:03:38;;;;;;;0.00;0.00;;;;;;;-0.59;100.00;100616.66;10519487;28;20054;-80
2023/03/11 06:08:44;;;;;;;0.00;0.00;;;;;;;-0.54;100.00;100616.97;10520657;28;20044;-81
2023/03/11 06:13:46;;;;;;;0.00;0.00;;;;;;;-0.66;100.00;100638.16;10528945;28;20055;-80
2023/03/11 06:18:49;;;;;;;0.00;0.00;;;;;;;-0.54;100.00;100622.03;10514768;28;20048;-80
2023/03/11 06:23:50;;;;;;;0.00;0.00;;;;;;;-0.97;100.00;100643.69;10544099;28;20036;-79
2023/03/11 06:28:52;;;;;;;0.00;0.00;;;;;;;-0.87;100.00;100656.97;10518573;28;20075;-79
2023/03/11 06:33:55;;;;;;;0.00;0.00;;;;;;;-0.86;100.00;100668.84;10512622;28;20064;-79
2023/03/11 06:38:56;;;;;;;0.00;0.00;;;;;;;-0.96;100.00;100668.19;10518420;28;20110;-79
2023/03/11 06:44:00;;;;;;;0.43;0.43;;;;;;;-0.19;100.00;100651.31;10534291;28;20040;-79
2023/03/11 06:49:02;;;;;;;0.00;0.00;;;;;;;-0.04;100.00;100676.75;10535551;28;20040;-79
2023/03/11 06:54:05;;;;;;;0.00;0.00;;;;;;;-0.11;100.00;100683.06;10560029;28;20035;-78
2023/03/11 06:59:07;;;;;;;0.00;0.00;;;;;;;-0.08;100.00;100690.88;10523467;28;20040;-78
2023/03/11 07:04:09;;;;;;;0.00;0.00;;;;;;;0.12;100.00;100693.81;10538055;28;20047;-79
2023/03/11 07:09:13;;;;;;;0.22;0.15;;;;;;;0.09;100.00;100702.09;10539981;28;20055;-78
2023/03/11 07:14:18;;;;;;;0.00;0.00;;;;;;;0.53;100.00;100700.66;10542368;28;20055;-79
2023/03/11 07:19:25;;;;;;;0.00;0.00;;;;;;;0.67;100.00;100713.31;10510303;28;20115;-79
2023/03/11 07:24:27;;;;;;;0.00;0.00;;;;;;;0.75;100.00;100734.97;10525523;28;20453;-80
2023/03/11 07:29:28;;;;;;;0.03;0.03;;;;;;;1.07;100.00;100741.16;10538508;28;20043;-80
2023/03/11 07:34:30;;;;;;;0.00;0.00;;;;;;;1.11;100.00;100750.72;10525348;28;20036;-80
2023/03/11 07:39:31;;;;;;;0.00;0.00;;;;;;;1.29;100.00;100760.25;10522732;28;20036;-80
2023/03/11 07:44:33;;;;;;;0.00;0.00;;;;;;;1.38;100.00;100773.47;10533054;28;20040;-80
2023/03/11 07:49:35;;;;;;;0.10;0.10;;;;;;;1.85;100.00;100784.75;10522046;28;20138;-79
2023/03/11 07:54:36;;;;;;;0.10;0.10;;;;;;;1.90;100.00;100802.00;10542524;28;20044;-80
2023/03/11 07:59:38;;;;;;;0.20;0.20;;;;;;;1.81;100.00;100814.19;10519420;28;20044;-78
2023/03/11 08:04:39;;;;;;;0.00;0.00;;;;;;;2.24;100.00;100820.03;10518499;28;20437;-79
2023/03/11 08:09:41;;;;;;;0.00;0.00;;;;;;;2.56;100.00;100823.56;10545800;28;20048;-80
2023/03/11 08:14:43;;;;;;;0.00;0.00;;;;;;;2.84;100.00;100831.97;10532100;28;20040;-79
2023/03/11 08:19:44;;;;;;;0.00;0.00;;;;;;;3.06;100.00;100848.41;10542186;28;20457;-79
2023/03/11 08:24:51;;;;;;;0.43;0.20;;;;;;;2.75;100.00;100864.50;10532632;28;20075;-79
2023/03/11 08:29:52;;;;;;;0.55;0.35;;;;;;;3.01;100.00;100880.38;10550455;28;20079;-80
2023/03/11 08:34:54;;;;;;;0.00;0.00;;;;;;;3.61;100.00;100877.69;10529332;28;20549;-79
2023/03/11 08:39:56;;;;;;;0.00;0.00;;;;;;;3.70;100.00;100890.03;10518318;28;21139;-80
2023/03/11 08:45:00;;;;;;;0.10;0.10;;;;;;;3.84;100.00;100898.41;10528014;28;20101;-80
2023/03/11 08:50:03;;;;;;;0.00;0.00;;;;;;;3.86;100.00;100896.81;10546488;28;20043;-80
2023/03/11 08:55:07;;;;;;;0.00;0.00;;;;;;;4.01;100.00;100910.38;10538094;28;20051;-81
2023/03/11 09:00:11;;;;;;;0.22;0.17;;;;;;;4.28;100.00;100918.59;10521019;28;20415;-81
2023/03/11 09:05:14;;;;;;;0.00;0.00;;;;;;;4.40;100.00;100931.09;10520264;28;20450;-81
2023/03/11 09:10:15;;;;;;;0.00;0.00;;;;;;;4.43;100.00;100944.00;10553298;28;20044;-81
2023/03/11 09:15:17;;;;;;;0.00;0.00;;;;;;;4.60;100.00;100949.09;10557402;28;20560;-81
2023/03/11 09:20:19;;;;;;;0.32;0.20;;;;;;;4.92;100.00;100950.69;10548470;28;20094;-81
2023/03/11 09:25:23;;;;;;;0.00;0.00;;;;;;;4.27;100.00;100990.78;10521454;28;20051;-81
2023/03/11 09:30:24;;;;;;;0.00;0.00;;;;;;;4.68;100.00;100991.19;10529225;28;20070;-80
2023/03/11 09:35:26;;;;;;;0.00;0.00;;;;;;;5.01;100.00;101000.47;10510565;28;20047;-80
2023/03/11 09:40:53;;;;;;;0.00;0.00;;;;;;;5.38;100.00;100995.53;10546756;28;20056;-80
2023/03/11 09:46:14;;;;;;;0.00;0.00;;;;;;;5.27;100.00;101018.78;10522704;28;20044;-80
2023/03/11 09:51:27;;;;;;;0.15;0.15;;;;;;;5.53;100.00;101023.47;10540945;28;20088;-80
2023/03/11 09:56:29;;;;;;;0.00;0.00;;;;;;;5.20;100.00;101058.47;10530194;28;20118;-80
2023/03/11 10:01:34;;;;;;;0.00;0.00;;;;;;;5.83;100.00;101053.88;10536201;28;20548;-80
2023/03/11 10:06:38;;;;;;;0.00;0.00;;;;;;;5.66;100.00;101068.41;10518240;28;20123;-79
2023/03/11 10:11:46;;;;;;;0.00;0.00;;;;;;;5.98;100.00;101068.19;10531846;28;20395;-81
2023/03/11 10:17:04;;;;;;;0.10;0.10;;;;;;;5.99;100.00;101068.31;10526654;28;20044;-80
2023/03/11 10:22:19;;;;;;;0.00;0.00;;;;;;;5.56;100.00;101081.53;10542455;28;20396;-81
2023/03/11 10:27:28;;;;;;;0.10;0.10;;;;;;;5.64;100.00;101092.13;10559248;28;20102;-81
2023/03/11 10:32:43;;;;;;;0.32;0.32;;;;;;;6.08;100.00;101089.97;10520152;28;20044;-81
2023/03/11 10:37:52;;;;;;;0.00;0.00;;;;;;;6.91;100.00;101080.09;10525642;28;20044;-80
2023/03/11 10:42:56;;;;;;;0.00;0.00;;;;;;;6.63;100.00;101086.53;10525720;28;20071;-80
2023/03/11 10:47:57;;;;;;;0.00;0.00;;;;;;;7.70;100.00;101088.50;10525411;28;20047;-80
2023/03/11 10:53:13;;;;;;;0.20;0.20;;;;;;;6.59;100.00;101085.50;10524473;28;20101;-80
2023/03/11 10:58:18;;;;;;;0.00;0.00;;;;;;;5.79;100.00;101089.44;10528459;28;20043;-81
2023/03/11 11:03:22;;;;;;;0.05;0.00;;;;;;;5.85;100.00;101095.75;10521932;28;20047;-81
2023/03/11 11:08:25;;;;;;;0.00;0.00;;;;;;;6.50;100.00;101080.00;10523019;28;20054;-81
2023/03/11 11:13:33;;;;;;;0.00;0.00;;;;;;;6.64;100.00;101095.97;10573052;27;20039;-81
2023/03/11 11:18:42;;;;;;;0.10;0.10;;;;;;;6.57;100.00;101102.50;10504964;28;20135;-80
2023/03/11 11:24:22;;;;;;;0.00;0.00;;;;;;;7.23;100.00;101096.84;10538863;28;20047;-80
2023/03/11 11:29:23;;;;;;;0.00;0.00;;;;;;;6.50;100.00;101100.47;10529299;28;20055;-80
2023/03/11 11:34:33;;;;;;;0.08;0.08;;;;;;;6.46;100.00;101106.25;10552407;28;20051;-81
2023/03/11 11:39:50;;;;;;;0.00;0.00;;;;;;;6.78;100.00;101111.97;10507540;28;20052;-80
2023/03/11 11:44:59;;;;;;;0.00;0.00;;;;;;;7.01;100.00;101112.09;10494573;28;20044;-80
2023/03/11 11:50:05;;;;;;;0.00;0.00;;;;;;;7.29;100.00;101114.19;10527036;28;20403;-80
2023/03/11 11:55:19;;;;;;;0.00;0.00;;;;;;;7.20;100.00;101127.44;10570999;27;20044;-80
2023/03/11 12:00:33;;;;;;;0.00;0.00;;;;;;;7.30;100.00;101123.59;10537218;28;20058;-80
2023/03/11 12:06:01;;;;;;;0.00;0.00;;;;;;;8.37;100.00;101120.22;10562919;27;20073;-84
2023/03/11 12:11:07;;;;;;;0.40;0.30;;;;;;;8.55;100.00;101105.53;10526120;28;20058;-85
2023/03/11 12:16:25;;;;;;;0.00;0.00;;;;;;;8.74;100.00;101108.78;10518585;28;20059;-85
2023/03/11 12:22:08;;;;;;;0.00;0.00;;;;;;;7.00;100.00;101136.81;10521079;28;20058;-85
2023/03/11 12:27:20;;;;;;;0.00;0.00;;;;;;;6.08;100.00;101146.25;10552196;28;20127;-83
2023/03/11 12:32:34;;;;;;;0.00;0.00;;;;;;;7.78;100.00;101129.03;10525249;28;20097;-78
2023/03/11 12:37:36;;;;;;;0.00;0.00;;;;;;;7.49;100.00;101132.94;10554775;28;20051;-79
2023/03/11 12:42:39;;;;;;;0.00;0.00;;;;;;;8.29;100.00;101116.47;10507600;28;20047;-78
2023/03/11 12:47:40;;;;;;;0.55;0.15;;;;;;;8.16;100.00;101121.09;10548159;28;20548;-78
2023/03/11 12:52:54;;;;;;;0.20;0.05;;;;;;;6.29;100.00;101126.81;10520770;28;20085;-78
2023/03/11 12:58:13;;;;;;;0.08;0.08;;;;;;;7.78;100.00;101123.03;10535069;28;20051;-77
2023/03/11 13:03:24;;;;;;;0.00;0.00;;;;;;;7.41;100.00;101122.38;10528509;28;20097;-77
2023/03/11 13:08:42;;;;;;;0.00;0.00;;;;;;;7.91;100.00;101125.28;10529848;28;20371;-77
2023/03/11 13:13:45;;;;;;;0.00;0.00;;;;;;;7.18;100.00;101131.66;10535525;28;20055;-79
2023/03/11 13:18:50;;;;;;;0.22;0.17;;;;;;;7.89;100.00;101129.47;10527740;28;20071;-79
2023/03/11 13:24:17;;;;;;;0.00;0.00;;;;;;;7.34;100.00;101143.44;10515185;28;20044;-78
2023/03/11 13:29:41;;;;;;;0.10;0.10;;;;;;;8.38;100.00;101130.53;10553350;28;20056;-79
2023/03/11 13:35:09;;;;;;;0.00;0.00;;;;;;;7.97;100.00;101131.47;10548467;28;20135;-78
2023/03/11 13:40:15;;;;;;;0.00;0.00;;;;;;;7.78;100.00;101128.16;10584622;28;20472;-78
2023/03/11 13:45:33;;;;;;;0.00;0.00;;;;;;;7.82;100.00;101122.34;10520887;28;20052;-79
2023/03/11 13:50:57;;;;;;;0.00;0.00;;;;;;;8.46;100.00;101130.81;10552273;28;20093;-77
2023/03/11 13:55:59;;;;;;;0.03;0.00;;;;;;;8.20;98.43;101133.25;10513057;28;20603;-78
2023/03/11 14:01:01;;;;;;;0.20;0.10;;;;;;;8.65;93.41;101142.69;10543575;28;20444;-77
2023/03/11 14:06:07;;;;;;;0.00;0.00;;;;;;;8.49;82.80;101136.09;10528395;28;20517;-76
2023/03/11 14:11:09;;;;;;;0.20;0.20;;;;;;;8.32;90.32;101135.44;10515252;28;20138;-78
2023/03/11 14:16:23;;;;;;;0.00;0.00;;;;;;;8.00;86.80;101147.00;10575978;27;20483;-78
2023/03/11 14:21:26;;;;;;;0.00;0.00;;;;;;;8.13;83.25;101148.34;10528433;28;20044;-78
2023/03/11 14:26:31;;;;;;;0.00;0.00;;;;;;;8.14;85.01;101151.00;10520930;28;20491;-79
2023/03/11 14:31:38;;;;;;;0.08;0.08;;;;;;;7.60;73.96;101152.22;10522368;28;20453;-78
2023/03/11 14:36:53;;;;;;;0.00;0.00;;;;;;;7.84;78.23;101154.06;10542929;28;20051;-79
2023/03/11 14:42:01;;;;;;;0.17;0.17;;;;;;;7.30;86.29;101155.25;10510833;28;20077;-78
2023/03/11 14:47:16;;;;;;;0.00;0.00;;;;;;;8.01;91.52;101161.56;10572362;28;20032;-77
2023/03/11 14:52:36;;;;;;;0.00;0.00;;;;;;;6.98;96.71;101169.19;10559405;28;20196;-78
2023/03/11 14:57:51;;;;;;;0.05;0.05;;;;;;;7.23;95.84;101162.56;10528657;28;20509;-79
2023/03/11 15:03:02;;;;;;;0.00;0.00;;;;;;;7.00;92.89;101170.13;10549877;28;20402;-80
2023/03/11 15:08:06;;;;;;;0.38;0.10;;;;;;;6.91;96.86;101165.47;10553660;28;20509;-80
2023/03/11 15:13:15;;;;;;;0.00;0.00;;;;;;;6.96;99.11;101169.09;10518805;28;20050;-80
2023/03/11 15:18:22;;;;;;;0.05;0.03;;;;;;;6.97;97.91;101165.75;10524344;28;20430;-80
2023/03/11 15:23:24;;;;;;;0.00;0.00;;;;;;;6.78;93.74;101168.28;10511299;28;20044;-80
2023/03/11 15:28:33;;;;;;;0.00;0.00;;;;;;;6.85;90.79;101164.34;10550111;28;20040;-80
2023/03/11 15:33:36;;;;;;;0.00;0.00;;;;;;;7.16;99.70;101161.44;10546293;28;20047;-80
2023/03/11 15:38:41;;;;;;;0.00;0.00;;;;;;;6.90;96.17;101173.97;10542538;28;20388;-80
2023/03/11 15:43:46;;;;;;;0.00;0.00;;;;;;;6.58;93.91;101169.94;10543623;28;20052;-79
2023/03/11 15:48:50;;;;;;;0.00;0.00;;;;;;;6.32;91.02;101173.03;10560310;28;20044;-80
2023/03/11 15:53:52;;;;;;;0.00;0.00;;;;;;;6.26;92.67;101167.63;10523334;28;20047;-80
2023/03/11 15:58:53;;;;;;;0.00;0.00;;;;;;;6.19;90.68;101175.81;10535261;28;20159;-80
2023/03/11 16:03:56;;;;;;;0.20;0.20;;;;;;;6.32;100.00;101177.28;10536058;28;20066;-80
2023/03/11 16:08:57;;;;;;;0.00;0.00;;;;;;;6.18;100.00;101184.28;10549183;28;20031;-80
2023/03/11 16:13:59;;;;;;;0.00;0.00;;;;;;;5.97;100.00;101184.97;10517120;28;20047;-80
2023/03/11 16:19:01;;;;;;;0.05;0.03;;;;;;;5.95;100.00;101173.78;10543006;28;20365;-79
2023/03/11 16:24:04;;;;;;;0.47;0.20;;;;;;;5.73;96.47;101171.84;10549763;28;20044;-81
2023/03/11 16:29:06;;;;;;;0.00;0.00;;;;;;;5.88;100.00;101174.28;10523545;28;20050;-80
2023/03/11 16:34:19;;;;;;;0.00;0.00;;;;;;;5.87;100.00;101182.75;10540902;28;20376;-80
2023/03/11 16:39:20;;;;;;;0.00;0.00;;;;;;;5.63;100.00;101183.25;10540618;28;20052;-80
2023/03/11 16:44:22;;;;;;;0.00;0.00;;;;;;;5.81;100.00;101177.34;10542281;28;20040;-80
2023/03/11 16:49:24;;;;;;;0.00;0.00;;;;;;;5.71;100.00;101187.09;10521527;28;20071;-80
2023/03/11 16:54:25;;;;;;;0.00;0.00;;;;;;;5.46;100.00;101196.88;10536815;28;20051;-79
2023/03/11 16:59:30;;;;;;;0.00;0.00;;;;;;;5.28;100.00;101195.13;10539353;28;20057;-79
2023/03/11 17:04:32;;;;;;;0.20;0.20;;;;;;;4.85;100.00;101193.72;10532581;28;20052;-79
2023/03/11 17:09:34;;;;;;;0.10;0.10;;;;;;;4.20;100.00;101189.31;10550431;28;20048;-80
2023/03/11 17:14:36;;;;;;;0.08;0.08;;;;;;;4.05;100.00;101204.63;10546916;28;20085;-80
2023/03/11 17:19:38;;;;;;;0.03;0.03;;;;;;;3.79;100.00;101212.53;10562458;28;20047;-80
2023/03/11 17:24:40;;;;;;;0.03;0.03;;;;;;;3.42;100.00;101205.25;10548265;28;20040;-79
2023/03/11 17:29:41;;;;;;;0.15;0.10;;;;;;;3.05;100.00;101205.56;10534423;28;20048;-79
2023/03/11 17:34:43;;;;;;;0.00;0.00;;;;;;;3.40;100.00;101206.81;10520125;28;20050;-79
2023/03/11 17:39:45;;;;;;;0.00;0.00;;;;;;;3.31;100.00;101211.38;10533836;28;20075;-79
2023/03/11 17:44:46;;;;;;;0.00;0.00;;;;;;;3.12;100.00;101222.97;10561553;28;20036;-79
2023/03/11 17:49:53;;;;;;;0.00;0.00;;;;;;;3.04;100.00;101211.44;10520072;28;20134;-78
2023/03/11 17:54:55;;;;;;;0.00;0.00;;;;;;;3.15;100.00;101205.38;10532591;28;20079;-78
2023/03/11 18:00:02;;;;;;;0.28;0.22;;;;;;;2.61;100.00;101208.78;10554512;28;20115;-79
2023/03/11 18:05:05;;;;;;;0.00;0.00;;;;;;;2.74;100.00;101215.53;10551991;28;20036;-79
2023/03/11 18:10:08;;;;;;;0.25;0.25;;;;;;;2.90;100.00;101214.81;10543961;28;20067;-78
2023/03/11 18:15:17;;;;;;;1.55;0.43;;;;;;;2.53;100.00;101219.34;10533944;28;20180;-79
2023/03/11 18:20:18;;;;;;;0.17;0.17;;;;;;;2.41;100.00;101216.03;10510984;28;20044;-79
2023/03/11 18:25:20;;;;;;;0.00;0.00;;;;;;;2.36;100.00;101217.38;10520221;28;20093;-79
2023/03/11 18:30:21;;;;;;;0.10;0.10;;;;;;;2.08;100.00;101220.69;10547791;28;20051;-78
2023/03/11 18:35:26;;;;;;;0.20;0.20;;;;;;;2.06;100.00;101223.16;10526759;28;20097;-79
2023/03/11 18:40:28;;;;;;;0.32;0.10;;;;;;;1.78;100.00;101214.50;10553227;28;20046;-78
2023/03/11 18:45:29;;;;;;;0.00;0.00;;;;;;;1.55;100.00;101207.09;10506595;28;20497;-79
2023/03/11 18:50:31;;;;;;;0.03;0.03;;;;;;;1.41;100.00;101208.72;10542334;28;20501;-79
2023/03/11 18:55:34;;;;;;;0.00;0.00;;;;;;;1.58;100.00;101202.22;10569058;28;20483;-78
2023/03/11 19:00:35;;;;;;;0.00;0.00;;;;;;;1.50;100.00;101205.91;10537774;28;20040;-78
2023/03/11 19:05:37;;;;;;;0.32;0.20;;;;;;;1.00;100.00;101200.78;10563359;28;20048;-79
2023/03/11 19:10:40;;;;;;;0.08;0.05;;;;;;;0.89;100.00;101178.09;10591015;28;20062;-77
2023/03/11 19:15:42;;;;;;;0.00;0.00;;;;;;;1.04;100.00;101185.84;10561457;28;20054;-80
2023/03/11 19:20:44;;;;;;;0.10;0.10;;;;;;;0.70;100.00;101180.13;10517863;28;20052;-78
2023/03/11 19:25:45;;;;;;;0.05;0.05;;;;;;;0.67;100.00;101144.38;10538877;28;20710;-79
2023/03/11 19:31:03;;;;;;;0.55;0.52;;;;;;;0.70;100.00;101131.94;10548986;28;20036;-78
2023/03/11 19:36:06;;;;;;;0.03;0.03;;;;;;;1.09;100.00;101127.81;10535324;28;20044;-78
2023/03/11 19:41:13;;;;;;;3.30;1.05;;;;;;;0.76;100.00;101101.91;10555250;28;20031;-79
2023/03/11 19:46:17;;;;;;;0.40;0.25;;;;;;;0.55;100.00;101094.59;10565717;28;20074;-79
2023/03/11 19:51:19;;;;;;;0.10;0.10;;;;;;;0.84;100.00;101070.34;10526712;28;20457;-79
2023/03/11 19:56:21;;;;;;;0.57;0.25;;;;;;;1.09;100.00;101072.88;10528824;28;20491;-79
2023/03/11 20:01:24;;;;;;;2.63;0.38;;;;;;;1.08;100.00;101090.56;10520953;28;20051;-79
2023/03/11 20:06:26;;;;;;;0.20;0.20;;;;;;;0.86;100.00;101085.66;10511919;28;20047;-79
2023/03/11 20:11:27;;;;;;;0.43;0.43;;;;;;;1.13;100.00;101098.44;10508982;28;20044;-80
2023/03/11 20:16:29;;;;;;;0.10;0.10;;;;;;;1.12;100.00;101102.66;10546583;28;20078;-80
2023/03/11 20:21:31;;;;;;;0.00;0.00;;;;;;;0.66;100.00;101095.34;10561123;28;20047;-79
2023/03/11 20:26:33;;;;;;;3.10;1.10;;;;;;;0.69;100.00;101085.41;10519724;28;20069;-79
2023/03/11 20:31:35;;;;;;;0.45;0.45;;;;;;;0.70;100.00;101092.22;10559703;28;20055;-80
2023/03/11 20:36:37;;;;;;;0.10;0.10;;;;;;;0.57;100.00;101085.44;10554158;28;20040;-80
2023/03/11 20:41:40;;;;;;;2.38;2.13;;;;;;;0.18;100.00;101069.22;10540088;28;20048;-79
2023/03/11 20:46:42;;;;;;;0.00;0.00;;;;;;;0.39;100.00;101061.34;10544829;28;20119;-79
2023/03/11 20:51:46;;;;;;;12.15;1.13;;;;;;;0.50;100.00;101052.81;10547252;28;20056;-79
2023/03/11 20:56:49;;;;;;;0.00;0.00;;;;;;;0.58;100.00;101068.56;10538213;28;20040;-80
2023/03/11 21:01:51;;;;;;;0.47;0.47;;;;;;;0.18;100.00;101059.09;10540678;28;20086;-80
2023/03/11 21:06:54;;;;;;;0.00;0.00;;;;;;;0.15;100.00;101049.59;10551466;28;20538;-79
2023/03/11 21:11:55;;;;;;;0.00;0.00;;;;;;;0.25;100.00;101056.22;10555713;28;20040;-79
2023/03/11 21:16:57;;;;;;;0.75;0.52;;;;;;;0.13;100.00;101037.59;10546435;28;20036;-79
2023/03/11 21:21:59;;;;;;;0.00;0.00;;;;;;;0.14;100.00;101035.19;10539811;28;20093;-79
2023/03/11 21:27:00;;;;;;;0.00;0.00;;;;;;;0.35;100.00;101037.44;10555002;28;20043;-79
2023/03/11 21:32:02;;;;;;;0.00;0.00;;;;;;;0.22;100.00;101033.16;10523219;28;20051;-79
2023/03/11 21:37:04;;;;;;;0.10;0.10;;;;;;;0.51;100.00;101038.50;10531493;28;20047;-79
2023/03/11 21:42:09;;;;;;;0.00;0.00;;;;;;;0.52;100.00;101050.41;10533031;28;20048;-79
2023/03/11 21:47:10;;;;;;;0.55;0.55;;;;;;;0.38;100.00;101052.84;10532617;28;20143;-80
2023/03/11 21:52:12;;;;;;;0.00;0.00;;;;;;;0.85;100.00;101049.28;10519649;28;20490;-80
2023/03/11 21:57:14;;;;;;;0.00;0.00;;;;;;;0.51;100.00;101062.19;10524576;28;20131;-80
2023/03/11 22:02:16;;;;;;;1.10;0.75;;;;;;;0.51;100.00;101054.59;10539916;28;20071;-79
2023/03/11 22:07:18;;;;;;;0.40;0.40;;;;;;;0.71;100.00;101034.81;10512882;28;20056;-79
2023/03/11 22:12:20;;;;;;;0.00;0.00;;;;;;;0.46;100.00;101039.06;10560495;28;20051;-79
2023/03/11 22:17:21;;;;;;;0.00;0.00;;;;;;;0.75;100.00;101035.09;10546899;28;20047;-79
2023/03/11 22:22:23;;;;;;;0.45;0.45;;;;;;;0.69;100.00;101033.81;10528959;28;20044;-79
2023/03/11 22:27:25;;;;;;;0.00;0.00;;;;;;;0.68;100.00;101040.50;10535321;28;20040;-79
2023/03/11 22:32:26;;;;;;;0.25;0.25;;;;;;;0.65;100.00;101034.34;10508421;28;20051;-77
2023/03/11 22:37:56;;;;;;;0.10;0.10;;;;;;;0.56;100.00;101048.16;10523804;28;20065;-79
2023/03/11 22:43:01;;;;;;;0.00;0.00;;;;;;;0.85;100.00;101046.75;10537048;28;20157;-79
2023/03/11 22:48:03;;;;;;;0.00;0.00;;;;;;;1.07;100.00;101065.94;10557072;28;20506;-80
2023/03/11 22:53:04;;;;;;;0.50;0.50;;;;;;;1.00;100.00;101089.16;10538902;28;20086;-80
2023/03/11 22:58:06;;;;;;;0.00;0.00;;;;;;;1.13;100.00;101109.50;10537579;28;20060;-78
2023/03/11 23:03:08;;;;;;;0.28;0.28;;;;;;;1.05;100.00;101106.44;10561066;28;20096;-79
2023/03/11 23:08:13;;;;;;;0.05;0.05;;;;;;;1.22;100.00;101097.44;10550027;28;20105;-77
2023/03/11 23:13:15;;;;;;;0.45;0.45;;;;;;;1.24;100.00;101102.59;10540516;28;20040;-79
2023/03/11 23:18:17;;;;;;;0.20;0.20;;;;;;;1.18;100.00;101094.59;10557335;28;20135;-79
2023/03/11 23:23:18;;;;;;;0.60;0.60;;;;;;;1.10;100.00;101092.41;10572165;28;20036;-79